Terminal Aerodrome Forecast
Issued by NWS

Home | Current Version | Previous Version | Text Only | Print | Product List | Glossary On
Versions: 1 2 3 4 5 6 7 8 9 10 11 12 13 14 15 16 17 18 19
886
FTUS41 KBGM 251901 AAA
TAFRME
TAF AMD
KRME 251901Z 2519/2618 10014KT P6SM -RA OVC035 WS020/11045KT
      TEMPO 2519/2522 2SM -RA BR BKN025
     FM252200 10010KT P6SM -RA BKN025 OVC035 WS020/11045KT
     FM260100 VRB04KT 3SM BR BKN025
      TEMPO 2610/2612 BKN009
     FM261300 29006KT P6SM OVC012=

USA.gov is the U.S. government's official web portal to all federal, state and local government web resources and services.